sensor_id;sensor_type;location;lat;lon;timestamp;pressure;altitude;pressure_sealevel;temperature
11424;BMP180;5768;51.476;7.210;2023-07-13T00:03:56;100181.00;;;20.30
11424;BMP180;5768;51.476;7.210;2023-07-13T00:08:59;100187.00;;;20.20
11424;BMP180;5768;51.476;7.210;2023-07-13T00:14:03;100180.00;;;20.20
11424;BMP180;5768;51.476;7.210;2023-07-13T00:19:06;100179.00;;;20.10
11424;BMP180;5768;51.476;7.210;2023-07-13T00:24:12;100183.00;;;20.00
11424;BMP180;5768;51.476;7.210;2023-07-13T00:29:16;100182.00;;;20.00
11424;BMP180;5768;51.476;7.210;2023-07-13T00:34:19;100180.00;;;20.00
11424;BMP180;5768;51.476;7.210;2023-07-13T00:39:21;100179.00;;;20.00
11424;BMP180;5768;51.476;7.210;2023-07-13T00:44:26;100181.00;;;19.90
11424;BMP180;5768;51.476;7.210;2023-07-13T00:49:31;100177.00;;;19.90
11424;BMP180;5768;51.476;7.210;2023-07-13T00:54:38;100176.00;;;19.90
11424;BMP180;5768;51.476;7.210;2023-07-13T00:59:45;100184.00;;;19.80
11424;BMP180;5768;51.476;7.210;2023-07-13T01:04:48;100186.00;;;19.80
11424;BMP180;5768;51.476;7.210;2023-07-13T01:09:51;100174.00;;;19.70
11424;BMP180;5768;51.476;7.210;2023-07-13T01:14:59;100166.00;;;19.60
11424;BMP180;5768;51.476;7.210;2023-07-13T01:20:02;100159.00;;;19.60
11424;BMP180;5768;51.476;7.210;2023-07-13T01:25:07;100166.00;;;19.50
11424;BMP180;5768;51.476;7.210;2023-07-13T01:30:11;100172.00;;;19.50
11424;BMP180;5768;51.476;7.210;2023-07-13T01:35:13;100157.00;;;19.50
11424;BMP180;5768;51.476;7.210;2023-07-13T01:40:19;100163.00;;;19.40
11424;BMP180;5768;51.476;7.210;2023-07-13T01:45:22;100170.00;;;19.40
11424;BMP180;5768;51.476;7.210;2023-07-13T01:50:24;100178.00;;;19.30
11424;BMP180;5768;51.476;7.210;2023-07-13T01:55:29;100171.00;;;19.30
11424;BMP180;5768;51.476;7.210;2023-07-13T02:00:32;100179.00;;;19.20
11424;BMP180;5768;51.476;7.210;2023-07-13T02:05:35;100182.00;;;19.20
11424;BMP180;5768;51.476;7.210;2023-07-13T02:10:39;100182.00;;;19.20
11424;BMP180;5768;51.476;7.210;2023-07-13T02:15:41;100171.00;;;19.10
11424;BMP180;5768;51.476;7.210;2023-07-13T02:20:44;100177.00;;;19.10
11424;BMP180;5768;51.476;7.210;2023-07-13T02:25:48;100178.00;;;19.10
11424;BMP180;5768;51.476;7.210;2023-07-13T02:30:50;100185.00;;;19.00
11424;BMP180;5768;51.476;7.210;2023-07-13T02:35:53;100179.00;;;18.90
11424;BMP180;5768;51.476;7.210;2023-07-13T02:40:58;100171.00;;;18.90
11424;BMP180;5768;51.476;7.210;2023-07-13T02:46:01;100172.00;;;18.80
11424;BMP180;5768;51.476;7.210;2023-07-13T02:51:08;100167.00;;;18.80
11424;BMP180;5768;51.476;7.210;2023-07-13T02:56:12;100177.00;;;18.80
11424;BMP180;5768;51.476;7.210;2023-07-13T03:01:14;100185.00;;;18.80
11424;BMP180;5768;51.476;7.210;2023-07-13T03:06:20;100184.00;;;18.70
11424;BMP180;5768;51.476;7.210;2023-07-13T03:11:25;100197.00;;;18.70
11424;BMP180;5768;51.476;7.210;2023-07-13T03:16:28;100194.00;;;18.60
11424;BMP180;5768;51.476;7.210;2023-07-13T03:21:31;100192.00;;;18.60
11424;BMP180;5768;51.476;7.210;2023-07-13T03:26:35;100197.00;;;18.50
11424;BMP180;5768;51.476;7.210;2023-07-13T03:31:38;100205.00;;;18.50
11424;BMP180;5768;51.476;7.210;2023-07-13T03:36:40;100204.00;;;18.40
11424;BMP180;5768;51.476;7.210;2023-07-13T03:41:44;100202.00;;;18.40
11424;BMP180;5768;51.476;7.210;2023-07-13T03:46:46;100208.00;;;18.50
11424;BMP180;5768;51.476;7.210;2023-07-13T03:51:49;100224.00;;;18.50
11424;BMP180;5768;51.476;7.210;2023-07-13T03:56:53;100230.00;;;18.50
11424;BMP180;5768;51.476;7.210;2023-07-13T04:01:56;100238.00;;;18.50
11424;BMP180;5768;51.476;7.210;2023-07-13T04:06:58;100238.00;;;18.70
11424;BMP180;5768;51.476;7.210;2023-07-13T04:12:04;100244.00;;;18.90
11424;BMP180;5768;51.476;7.210;2023-07-13T04:17:07;100245.00;;;19.00
11424;BMP180;5768;51.476;7.210;2023-07-13T04:22:09;100246.00;;;18.90
11424;BMP180;5768;51.476;7.210;2023-07-13T04:27:13;100246.00;;;18.90
11424;BMP180;5768;51.476;7.210;2023-07-13T04:32:15;100244.00;;;18.70
11424;BMP180;5768;51.476;7.210;2023-07-13T04:37:18;100250.00;;;18.70
11424;BMP180;5768;51.476;7.210;2023-07-13T04:42:22;100260.00;;;18.90
11424;BMP180;5768;51.476;7.210;2023-07-13T04:47:25;100258.00;;;18.90
11424;BMP180;5768;51.476;7.210;2023-07-13T04:52:27;100266.00;;;19.20
11424;BMP180;5768;51.476;7.210;2023-07-13T04:57:31;100261.00;;;19.30
11424;BMP180;5768;51.476;7.210;2023-07-13T05:02:34;100260.00;;;19.50
11424;BMP180;5768;51.476;7.210;2023-07-13T05:07:37;100273.00;;;19.70
11424;BMP180;5768;51.476;7.210;2023-07-13T05:12:41;100276.00;;;19.60
11424;BMP180;5768;51.476;7.210;2023-07-13T05:17:43;100279.00;;;19.60
11424;BMP180;5768;51.476;7.210;2023-07-13T05:22:46;100281.00;;;19.60
11424;BMP180;5768;51.476;7.210;2023-07-13T05:27:50;100280.00;;;19.80
11424;BMP180;5768;51.476;7.210;2023-07-13T05:32:53;100282.00;;;20.00
11424;BMP180;5768;51.476;7.210;2023-07-13T05:37:55;100298.00;;;20.10
11424;BMP180;5768;51.476;7.210;2023-07-13T05:42:59;100291.00;;;20.20
11424;BMP180;5768;51.476;7.210;2023-07-13T05:48:02;100298.00;;;20.20
11424;BMP180;5768;51.476;7.210;2023-07-13T05:53:04;100292.00;;;20.30
11424;BMP180;5768;51.476;7.210;2023-07-13T05:58:08;100310.00;;;20.40
11424;BMP180;5768;51.476;7.210;2023-07-13T06:03:11;100300.00;;;20.40
11424;BMP180;5768;51.476;7.210;2023-07-13T06:08:13;100316.00;;;20.50
11424;BMP180;5768;51.476;7.210;2023-07-13T06:13:17;100330.00;;;20.70
11424;BMP180;5768;51.476;7.210;2023-07-13T06:18:20;100322.00;;;20.80
11424;BMP180;5768;51.476;7.210;2023-07-13T06:23:23;100335.00;;;20.70
11424;BMP180;5768;51.476;7.210;2023-07-13T06:28:28;100322.00;;;20.40
11424;BMP180;5768;51.476;7.210;2023-07-13T06:33:30;100326.00;;;20.40
11424;BMP180;5768;51.476;7.210;2023-07-13T06:38:33;100345.00;;;20.30
11424;BMP180;5768;51.476;7.210;2023-07-13T06:43:37;100347.00;;;20.20
11424;BMP180;5768;51.476;7.210;2023-07-13T06:48:40;100335.00;;;20.50
11424;BMP180;5768;51.476;7.210;2023-07-13T06:53:42;100361.00;;;20.70
11424;BMP180;5768;51.476;7.210;2023-07-13T06:58:47;100354.00;;;20.60
11424;BMP180;5768;51.476;7.210;2023-07-13T07:03:49;100352.00;;;20.90
11424;BMP180;5768;51.476;7.210;2023-07-13T07:08:52;100361.00;;;20.90
11424;BMP180;5768;51.476;7.210;2023-07-13T07:13:56;100363.00;;;21.00
11424;BMP180;5768;51.476;7.210;2023-07-13T07:18:58;100357.00;;;21.20
11424;BMP180;5768;51.476;7.210;2023-07-13T07:24:01;100355.00;;;21.40
11424;BMP180;5768;51.476;7.210;2023-07-13T07:29:07;100366.00;;;21.50
11424;BMP180;5768;51.476;7.210;2023-07-13T07:34:09;100359.00;;;21.70
11424;BMP180;5768;51.476;7.210;2023-07-13T07:39:12;100366.00;;;21.70
11424;BMP180;5768;51.476;7.210;2023-07-13T07:44:16;100362.00;;;21.70
11424;BMP180;5768;51.476;7.210;2023-07-13T07:49:18;100371.00;;;21.80
11424;BMP180;5768;51.476;7.210;2023-07-13T07:54:21;100379.00;;;22.10
11424;BMP180;5768;51.476;7.210;2023-07-13T07:59:25;100380.00;;;22.20
11424;BMP180;5768;51.476;7.210;2023-07-13T08:04:28;100372.00;;;22.60
11424;BMP180;5768;51.476;7.210;2023-07-13T08:09:31;100375.00;;;22.60
11424;BMP180;5768;51.476;7.210;2023-07-13T08:14:35;100375.00;;;22.60
11424;BMP180;5768;51.476;7.210;2023-07-13T08:19:37;100395.00;;;22.60
11424;BMP180;5768;51.476;7.210;2023-07-13T08:24:40;100371.00;;;22.30
11424;BMP180;5768;51.476;7.210;2023-07-13T08:29:44;100368.00;;;22.30
11424;BMP180;5768;51.476;7.210;2023-07-13T08:34:47;100369.00;;;22.30
11424;BMP180;5768;51.476;7.210;2023-07-13T08:39:50;100374.00;;;22.10
11424;BMP180;5768;51.476;7.210;2023-07-13T08:45:00;100377.00;;;22.40
11424;BMP180;5768;51.476;7.210;2023-07-13T08:50:11;100373.00;;;22.50
11424;BMP180;5768;51.476;7.210;2023-07-13T08:55:16;100388.00;;;22.60
11424;BMP180;5768;51.476;7.210;2023-07-13T09:00:31;100364.00;;;22.60
11424;BMP180;5768;51.476;7.210;2023-07-13T09:05:40;100376.00;;;22.60
11424;BMP180;5768;51.476;7.210;2023-07-13T09:10:45;100366.00;;;22.50
11424;BMP180;5768;51.476;7.210;2023-07-13T09:15:51;100357.00;;;22.90
11424;BMP180;5768;51.476;7.210;2023-07-13T09:20:57;100363.00;;;23.40
11424;BMP180;5768;51.476;7.210;2023-07-13T09:26:04;100363.00;;;23.60
11424;BMP180;5768;51.476;7.210;2023-07-13T09:31:13;100362.00;;;23.80
11424;BMP180;5768;51.476;7.210;2023-07-13T09:36:21;100365.00;;;23.60
11424;BMP180;5768;51.476;7.210;2023-07-13T09:41:31;100373.00;;;23.80
11424;BMP180;5768;51.476;7.210;2023-07-13T09:46:43;100366.00;;;24.10
11424;BMP180;5768;51.476;7.210;2023-07-13T09:51:46;100385.00;;;24.30
11424;BMP180;5768;51.476;7.210;2023-07-13T09:56:54;100382.00;;;24.30
11424;BMP180;5768;51.476;7.210;2023-07-13T10:01:59;100374.00;;;24.30
11424;BMP180;5768;51.476;7.210;2023-07-13T10:07:06;100388.00;;;24.60
11424;BMP180;5768;51.476;7.210;2023-07-13T10:12:14;100390.00;;;25.00
11424;BMP180;5768;51.476;7.210;2023-07-13T10:17:24;100394.00;;;25.00
11424;BMP180;5768;51.476;7.210;2023-07-13T10:22:33;100383.00;;;25.00
11424;BMP180;5768;51.476;7.210;2023-07-13T10:27:39;100399.00;;;25.80
11424;BMP180;5768;51.476;7.210;2023-07-13T10:32:43;100403.00;;;26.00
11424;BMP180;5768;51.476;7.210;2023-07-13T10:37:51;100404.00;;;25.40
11424;BMP180;5768;51.476;7.210;2023-07-13T10:42:56;100401.00;;;25.10
11424;BMP180;5768;51.476;7.210;2023-07-13T10:48:01;100408.00;;;25.30
11424;BMP180;5768;51.476;7.210;2023-07-13T10:53:18;100406.00;;;25.30
11424;BMP180;5768;51.476;7.210;2023-07-13T10:58:23;100419.00;;;25.60
11424;BMP180;5768;51.476;7.210;2023-07-13T11:03:28;100413.00;;;25.60
11424;BMP180;5768;51.476;7.210;2023-07-13T11:08:34;100419.00;;;25.60
11424;BMP180;5768;51.476;7.210;2023-07-13T11:13:57;100412.00;;;25.60
11424;BMP180;5768;51.476;7.210;2023-07-13T11:19:37;100420.00;;;25.20
11424;BMP180;5768;51.476;7.210;2023-07-13T11:24:52;100398.00;;;24.90
11424;BMP180;5768;51.476;7.210;2023-07-13T11:30:09;100404.00;;;25.20
11424;BMP180;5768;51.476;7.210;2023-07-13T11:35:16;100408.00;;;25.60
11424;BMP180;5768;51.476;7.210;2023-07-13T11:40:24;100408.00;;;25.80
11424;BMP180;5768;51.476;7.210;2023-07-13T11:45:30;100403.00;;;25.40
11424;BMP180;5768;51.476;7.210;2023-07-13T11:50:34;100394.00;;;25.20
11424;BMP180;5768;51.476;7.210;2023-07-13T11:55:38;100390.00;;;25.20
11424;BMP180;5768;51.476;7.210;2023-07-13T12:00:41;100385.00;;;25.50
11424;BMP180;5768;51.476;7.210;2023-07-13T12:06:01;100363.00;;;25.80
11424;BMP180;5768;51.476;7.210;2023-07-13T12:11:11;100387.00;;;25.80
11424;BMP180;5768;51.476;7.210;2023-07-13T12:16:21;100392.00;;;25.60
11424;BMP180;5768;51.476;7.210;2023-07-13T12:21:31;100397.00;;;25.90
11424;BMP180;5768;51.476;7.210;2023-07-13T12:26:34;100377.00;;;26.40
11424;BMP180;5768;51.476;7.210;2023-07-13T12:31:40;100384.00;;;26.70
11424;BMP180;5768;51.476;7.210;2023-07-13T12:36:49;100381.00;;;27.10
11424;BMP180;5768;51.476;7.210;2023-07-13T12:41:53;100393.00;;;28.30
11424;BMP180;5768;51.476;7.210;2023-07-13T12:46:58;100384.00;;;28.50
11424;BMP180;5768;51.476;7.210;2023-07-13T12:52:10;100383.00;;;29.60
11424;BMP180;5768;51.476;7.210;2023-07-13T12:57:17;100380.00;;;30.60
11424;BMP180;5768;51.476;7.210;2023-07-13T13:02:28;100404.00;;;30.60
11424;BMP180;5768;51.476;7.210;2023-07-13T13:07:33;100386.00;;;29.80
11424;BMP180;5768;51.476;7.210;2023-07-13T13:12:35;100392.00;;;29.00
11424;BMP180;5768;51.476;7.210;2023-07-13T13:17:38;100401.00;;;27.60
11424;BMP180;5768;51.476;7.210;2023-07-13T13:22:43;100395.00;;;26.90
11424;BMP180;5768;51.476;7.210;2023-07-13T13:27:46;100412.00;;;26.30
11424;BMP180;5768;51.476;7.210;2023-07-13T13:32:49;100424.00;;;26.00
11424;BMP180;5768;51.476;7.210;2023-07-13T13:37:53;100461.00;;;25.10
11424;BMP180;5768;51.476;7.210;2023-07-13T13:42:55;100485.00;;;23.90
11424;BMP180;5768;51.476;7.210;2023-07-13T13:47:58;100471.00;;;23.20
11424;BMP180;5768;51.476;7.210;2023-07-13T13:53:02;100453.00;;;23.30
11424;BMP180;5768;51.476;7.210;2023-07-13T13:58:05;100450.00;;;23.70
11424;BMP180;5768;51.476;7.210;2023-07-13T14:03:14;100455.00;;;24.30
11424;BMP180;5768;51.476;7.210;2023-07-13T14:08:20;100440.00;;;25.00
11424;BMP180;5768;51.476;7.210;2023-07-13T14:13:26;100447.00;;;26.20
11424;BMP180;5768;51.476;7.210;2023-07-13T14:18:29;100452.00;;;27.50
11424;BMP180;5768;51.476;7.210;2023-07-13T14:23:34;100449.00;;;29.20
11424;BMP180;5768;51.476;7.210;2023-07-13T14:28:37;100444.00;;;27.90
11424;BMP180;5768;51.476;7.210;2023-07-13T14:33:41;100468.00;;;26.70
11424;BMP180;5768;51.476;7.210;2023-07-13T14:38:45;100501.00;;;25.70
11424;BMP180;5768;51.476;7.210;2023-07-13T14:43:47;100470.00;;;24.80
11424;BMP180;5768;51.476;7.210;2023-07-13T14:48:50;100469.00;;;25.20
11424;BMP180;5768;51.476;7.210;2023-07-13T14:53:54;100469.00;;;25.30
11424;BMP180;5768;51.476;7.210;2023-07-13T14:58:57;100461.00;;;25.20
11424;BMP180;5768;51.476;7.210;2023-07-13T15:04:00;100452.00;;;25.60
11424;BMP180;5768;51.476;7.210;2023-07-13T15:09:04;100450.00;;;26.80
11424;BMP180;5768;51.476;7.210;2023-07-13T15:14:07;100448.00;;;30.20
11424;BMP180;5768;51.476;7.210;2023-07-13T15:19:10;100453.00;;;32.90
11424;BMP180;5768;51.476;7.210;2023-07-13T15:24:14;100464.00;;;34.40
11424;BMP180;5768;51.476;7.210;2023-07-13T15:29:17;100461.00;;;32.50
11424;BMP180;5768;51.476;7.210;2023-07-13T15:34:23;100455.00;;;30.00
11424;BMP180;5768;51.476;7.210;2023-07-13T15:39:30;100454.00;;;28.60
11424;BMP180;5768;51.476;7.210;2023-07-13T15:44:33;100446.00;;;27.80
11424;BMP180;5768;51.476;7.210;2023-07-13T15:49:36;100444.00;;;27.20
11424;BMP180;5768;51.476;7.210;2023-07-13T15:54:40;100466.00;;;26.60
11424;BMP180;5768;51.476;7.210;2023-07-13T15:59:43;100518.00;;;25.30
11424;BMP180;5768;51.476;7.210;2023-07-13T16:04:46;100500.00;;;22.40
11424;BMP180;5768;51.476;7.210;2023-07-13T16:09:51;100505.00;;;21.30
11424;BMP180;5768;51.476;7.210;2023-07-13T16:14:54;100499.00;;;20.70
11424;BMP180;5768;51.476;7.210;2023-07-13T16:19:56;100502.00;;;20.60
11424;BMP180;5768;51.476;7.210;2023-07-13T16:25:01;100499.00;;;20.90
11424;BMP180;5768;51.476;7.210;2023-07-13T16:30:13;100485.00;;;21.30
11424;BMP180;5768;51.476;7.210;2023-07-13T16:35:16;100490.00;;;21.50
11424;BMP180;5768;51.476;7.210;2023-07-13T16:40:23;100488.00;;;21.80
11424;BMP180;5768;51.476;7.210;2023-07-13T16:45:28;100484.00;;;21.80
11424;BMP180;5768;51.476;7.210;2023-07-13T16:50:35;100485.00;;;22.20
11424;BMP180;5768;51.476;7.210;2023-07-13T16:55:39;100488.00;;;22.50
11424;BMP180;5768;51.476;7.210;2023-07-13T17:00:41;100491.00;;;22.90
11424;BMP180;5768;51.476;7.210;2023-07-13T17:05:46;100483.00;;;23.00
11424;BMP180;5768;51.476;7.210;2023-07-13T17:10:52;100479.00;;;23.00
11424;BMP180;5768;51.476;7.210;2023-07-13T17:15:56;100470.00;;;23.20
11424;BMP180;5768;51.476;7.210;2023-07-13T17:20:59;100470.00;;;23.40
11424;BMP180;5768;51.476;7.210;2023-07-13T17:26:04;100479.00;;;23.50
11424;BMP180;5768;51.476;7.210;2023-07-13T17:31:09;100478.00;;;23.50
11424;BMP180;5768;51.476;7.210;2023-07-13T17:36:15;100490.00;;;23.50
11424;BMP180;5768;51.476;7.210;2023-07-13T17:41:20;100489.00;;;23.60
11424;BMP180;5768;51.476;7.210;2023-07-13T17:46:26;100488.00;;;23.60
11424;BMP180;5768;51.476;7.210;2023-07-13T17:51:30;100486.00;;;23.60
11424;BMP180;5768;51.476;7.210;2023-07-13T17:56:33;100480.00;;;23.60
11424;BMP180;5768;51.476;7.210;2023-07-13T18:01:36;100480.00;;;23.40
11424;BMP180;5768;51.476;7.210;2023-07-13T18:06:43;100475.00;;;23.60
11424;BMP180;5768;51.476;7.210;2023-07-13T18:11:55;100479.00;;;23.90
11424;BMP180;5768;51.476;7.210;2023-07-13T18:16:59;100481.00;;;24.40
11424;BMP180;5768;51.476;7.210;2023-07-13T18:22:04;100485.00;;;26.40
11424;BMP180;5768;51.476;7.210;2023-07-13T18:27:13;100490.00;;;27.90
11424;BMP180;5768;51.476;7.210;2023-07-13T18:32:18;100497.00;;;28.40
11424;BMP180;5768;51.476;7.210;2023-07-13T18:37:22;100499.00;;;28.50
11424;BMP180;5768;51.476;7.210;2023-07-13T18:42:26;100500.00;;;28.40
11424;BMP180;5768;51.476;7.210;2023-07-13T18:47:29;100496.00;;;28.00
11424;BMP180;5768;51.476;7.210;2023-07-13T18:52:36;100501.00;;;26.70
11424;BMP180;5768;51.476;7.210;2023-07-13T18:57:43;100500.00;;;25.40
11424;BMP180;5768;51.476;7.210;2023-07-13T19:02:46;100495.00;;;24.60
11424;BMP180;5768;51.476;7.210;2023-07-13T19:07:48;100492.00;;;24.00
11424;BMP180;5768;51.476;7.210;2023-07-13T19:12:55;100497.00;;;23.40
11424;BMP180;5768;51.476;7.210;2023-07-13T19:18:00;100487.00;;;23.00
11424;BMP180;5768;51.476;7.210;2023-07-13T19:23:05;100493.00;;;22.60
11424;BMP180;5768;51.476;7.210;2023-07-13T19:28:35;100507.00;;;22.30
11424;BMP180;5768;51.476;7.210;2023-07-13T19:33:39;100509.00;;;22.00
11424;BMP180;5768;51.476;7.210;2023-07-13T19:38:42;100503.00;;;21.70
11424;BMP180;5768;51.476;7.210;2023-07-13T19:43:48;100511.00;;;21.50
11424;BMP180;5768;51.476;7.210;2023-07-13T19:48:51;100518.00;;;21.40
11424;BMP180;5768;51.476;7.210;2023-07-13T19:53:58;100512.00;;;21.10
11424;BMP180;5768;51.476;7.210;2023-07-13T19:59:15;100520.00;;;21.00
11424;BMP180;5768;51.476;7.210;2023-07-13T20:04:20;100532.00;;;20.80
11424;BMP180;5768;51.476;7.210;2023-07-13T20:09:24;100534.00;;;20.80
11424;BMP180;5768;51.476;7.210;2023-07-13T20:14:30;100536.00;;;20.80
11424;BMP180;5768;51.476;7.210;2023-07-13T20:19:35;100544.00;;;20.70
11424;BMP180;5768;51.476;7.210;2023-07-13T20:24:38;100550.00;;;20.70
11424;BMP180;5768;51.476;7.210;2023-07-13T20:29:42;100542.00;;;20.70
11424;BMP180;5768;51.476;7.210;2023-07-13T20:34:45;100550.00;;;20.60
11424;BMP180;5768;51.476;7.210;2023-07-13T20:39:47;100546.00;;;20.50
11424;BMP180;5768;51.476;7.210;2023-07-13T20:44:51;100538.00;;;20.50
11424;BMP180;5768;51.476;7.210;2023-07-13T20:49:54;100545.00;;;20.60
11424;BMP180;5768;51.476;7.210;2023-07-13T20:54:58;100547.00;;;20.60
11424;BMP180;5768;51.476;7.210;2023-07-13T21:00:04;100536.00;;;20.60
11424;BMP180;5768;51.476;7.210;2023-07-13T21:05:16;100544.00;;;20.70
11424;BMP180;5768;51.476;7.210;2023-07-13T21:10:21;100547.00;;;20.70
11424;BMP180;5768;51.476;7.210;2023-07-13T21:15:29;100547.00;;;20.80
11424;BMP180;5768;51.476;7.210;2023-07-13T21:20:35;100547.00;;;20.70
11424;BMP180;5768;51.476;7.210;2023-07-13T21:25:38;100533.00;;;20.70
11424;BMP180;5768;51.476;7.210;2023-07-13T21:30:42;100542.00;;;20.60
11424;BMP180;5768;51.476;7.210;2023-07-13T21:35:45;100541.00;;;20.60
11424;BMP180;5768;51.476;7.210;2023-07-13T21:40:50;100540.00;;;20.60
11424;BMP180;5768;51.476;7.210;2023-07-13T21:45:54;100546.00;;;20.50
11424;BMP180;5768;51.476;7.210;2023-07-13T21:50:57;100552.00;;;20.50
11424;BMP180;5768;51.476;7.210;2023-07-13T21:56:01;100538.00;;;20.50
11424;BMP180;5768;51.476;7.210;2023-07-13T22:01:16;100542.00;;;20.40
11424;BMP180;5768;51.476;7.210;2023-07-13T22:06:28;100538.00;;;20.40
11424;BMP180;5768;51.476;7.210;2023-07-13T22:11:32;100543.00;;;20.20
11424;BMP180;5768;51.476;7.210;2023-07-13T22:16:36;100547.00;;;20.10
11424;BMP180;5768;51.476;7.210;2023-07-13T22:21:39;100547.00;;;20.10
11424;BMP180;5768;51.476;7.210;2023-07-13T22:26:41;100536.00;;;20.10
11424;BMP180;5768;51.476;7.210;2023-07-13T22:31:45;100545.00;;;19.90
11424;BMP180;5768;51.476;7.210;2023-07-13T22:36:48;100542.00;;;19.80
11424;BMP180;5768;51.476;7.210;2023-07-13T22:41:51;100545.00;;;19.70
11424;BMP180;5768;51.476;7.210;2023-07-13T22:46:56;100537.00;;;19.60
11424;BMP180;5768;51.476;7.210;2023-07-13T22:52:01;100533.00;;;19.60
11424;BMP180;5768;51.476;7.210;2023-07-13T22:57:04;100526.00;;;19.50
11424;BMP180;5768;51.476;7.210;2023-07-13T23:02:16;100520.00;;;19.50
11424;BMP180;5768;51.476;7.210;2023-07-13T23:07:19;100522.00;;;19.40
11424;BMP180;5768;51.476;7.210;2023-07-13T23:12:25;100531.00;;;19.40
11424;BMP180;5768;51.476;7.210;2023-07-13T23:17:33;100536.00;;;19.50
11424;BMP180;5768;51.476;7.210;2023-07-13T23:22:36;100527.00;;;19.60
11424;BMP180;5768;51.476;7.210;2023-07-13T23:27:38;100514.00;;;19.70
11424;BMP180;5768;51.476;7.210;2023-07-13T23:32:42;100515.00;;;19.60
11424;BMP180;5768;51.476;7.210;2023-07-13T23:37:48;100518.00;;;19.50
11424;BMP180;5768;51.476;7.210;2023-07-13T23:42:51;100510.00;;;19.40
11424;BMP180;5768;51.476;7.210;2023-07-13T23:47:56;100504.00;;;19.30
11424;BMP180;5768;51.476;7.210;2023-07-13T23:53:01;100496.00;;;19.30
11424;BMP180;5768;51.476;7.210;2023-07-13T23:58:04;100498.00;;;19.30
